This is the latest recevied weather packets stored in our database for station/object F5MAP-5. If no packets are shown the sender has not sent any weather packets the latest 10 day(s).
| Time | Temp. | Humidity | Pressure | Rain* | Wind** | Luminosity | Snow |
|---|---|---|---|---|---|---|---|
| 1777727534 | 29.44° C | 34% | 1018.2 hPa | 0 mm | - | 724 W/m² | - |
| 1777726934 | 29.44° C | 34% | 1018.4 hPa | 0 mm | - | 726 W/m² | - |
| 1777726334 | 29.44° C | 33% | 1018.5 hPa | 0 mm | - | 740 W/m² | - |
| 1777725734 | 29.44° C | 32% | 1018.5 hPa | 0 mm | - | 745 W/m² | - |
| 1777725135 | 30° C | 31% | 1018.7 hPa | 0 mm | - | 766 W/m² | - |
| 1777724534 | 29.44° C | 34% | 1018.9 hPa | 0 mm | - | 768 W/m² | - |
| 1777723933 | 29.44° C | 34% | 1019 hPa | 0 mm | - | 742 W/m² | - |
| 1777723333 | 29.44° C | 36% | 1019.2 hPa | 0 mm | - | 742 W/m² | - |
| 1777722733 | 29.44° C | 34% | 1019.3 hPa | 0 mm | - | 744 W/m² | - |
| 1777722136 | 28.89° C | 37% | 1019.4 hPa | 0 mm | - | 740 W/m² | - |
| 1777721533 | 28.89° C | 36% | 1019.6 hPa | 0 mm | - | 805 W/m² | - |
| 1777720933 | 28.33° C | 37% | 1019.8 hPa | 0 mm | - | 789 W/m² | - |
| 1777720333 | 27.78° C | 39% | 1019.9 hPa | 0 mm | - | 710 W/m² | - |
| 1777719733 | 27.22° C | 40% | 1020.1 hPa | 0 mm | - | 795 W/m² | - |
| 1777719133 | 27.22° C | 40% | 1020.2 hPa | 0 mm | - | 812 W/m² | - |
| 1777718533 | 26.67° C | 41% | 1020.4 hPa | 0 mm | - | 747 W/m² | - |
| 1777717932 | 26.67° C | 42% | 1020.5 hPa | 0 mm | - | 684 W/m² | - |
| 1777717332 | 26.11° C | 42% | 1020.6 hPa | 0 mm | - | 721 W/m² | - |
| 1777716732 | 25.56° C | 43% | 1020.7 hPa | 0 mm | - | 772 W/m² | - |
| 1777716132 | 25° C | 44% | 1020.9 hPa | 0 mm | - | 701 W/m² | - |
| 1777715533 | 24.44° C | 45% | 1021 hPa | 0 mm | - | 708 W/m² | - |
| 1777714933 | 23.89° C | 46% | 1021.1 hPa | 0 mm | - | 705 W/m² | - |
| 1777714333 | 23.33° C | 46% | 1021.3 hPa | 0 mm | - | 659 W/m² | - |
| 1777713733 | 22.78° C | 48% | 1021.3 hPa | 0 mm | - | 601 W/m² | - |
| 1777713133 | 22.22° C | 49% | 1021.4 hPa | 0 mm | - | 668 W/m² | - |
* Rain latest hour (hover to see other rain measurements)
** Current wind speed in m/s (hover to see current wind gust speed)